Time;durP1;ratioP1;P1;durP2;ratioP2;P2;SDS_P1;SDS_P2;PMS_P1;PMS_P2;Temp;Humidity;BMP_temperature;BMP_pressure;BME280_temperature;BME280_humidity;BME280_pressure;Samples;Min_cycle;Max_cycle;Signal;HPM_P1;HPM_P2
2021/03/04 00:01:36;;;;;;;;;;;;;;;5.76;100.00;101230.78;5095419;28;19969;-74
2021/03/04 00:04:02;;;;;;;;;;;;;;;5.67;100.00;101226.75;5092475;28;19947;-73
2021/03/04 00:06:28;;;;;;;;;;;;;;;5.62;100.00;101233.34;5092119;28;19985;-74
2021/03/04 00:08:53;;;;;;;;;;;;;;;5.47;100.00;101225.09;5092488;28;19985;-73
2021/03/04 00:11:19;;;;;;;;;;;;;;;5.47;100.00;101221.53;5093512;28;19931;-73
2021/03/04 00:13:46;;;;;;;;;;;;;;;5.47;100.00;101233.16;5092197;28;19924;-74
2021/03/04 00:16:12;;;;;;;;;;;;;;;5.53;100.00;101215.81;5092127;28;20014;-66
2021/03/04 00:18:37;;;;;;;;;;;;;;;5.48;100.00;101220.59;5092226;28;20081;-66
2021/03/04 00:21:03;;;;;;;;;;;;;;;5.43;100.00;101215.44;5092084;28;19924;-66
2021/03/04 00:23:29;;;;;;;;;;;;;;;5.37;100.00;101213.03;5092148;28;19959;-66
2021/03/04 00:25:55;;;;;;;;;;;;;;;5.32;100.00;101212.44;5092040;28;19924;-67
2021/03/04 00:28:20;;;;;;;;;;;;;;;5.24;100.00;101204.75;5092202;28;20405;-67
2021/03/04 00:30:47;;;;;;;;;;;;;;;5.25;100.00;101211.88;5104099;28;19946;-67
2021/03/04 00:33:13;;;;;;;;;;;;;;;5.24;100.00;101206.56;5112259;28;20484;-67
2021/03/04 00:35:39;;;;;;;;;;;;;;;5.20;100.00;101206.72;5112134;28;19923;-66
2021/03/04 00:38:04;;;;;;;;;;;;;;;5.19;100.00;101202.28;5112406;28;20343;-66
2021/03/04 00:40:30;;;;;;;;;;;;;;;5.21;100.00;101199.50;5112182;28;19953;-67
2021/03/04 00:42:56;;;;;;;;;;;;;;;5.12;100.00;101206.25;5112376;28;19971;-66
2021/03/04 00:45:24;;;;;;;;;;;;;;;5.08;100.00;101198.38;5112201;28;19924;-67
2021/03/04 00:47:51;;;;;;;;;;;;;;;5.02;100.00;101199.56;5111443;28;21559;-66
2021/03/04 00:50:18;;;;;;;;;;;;;;;4.98;100.00;101188.13;5111400;28;19955;-67
2021/03/04 00:52:44;;;;;;;;;;;;;;;4.94;100.00;101189.19;5112102;28;19928;-67
2021/03/04 00:55:10;;;;;;;;;;;;;;;4.96;100.00;101186.47;5111963;28;19937;-67
2021/03/04 00:57:36;;;;;;;;;;;;;;;4.90;100.00;101194.81;5111828;28;20019;-67
2021/03/04 01:00:03;;;;;;;;;;;;;;;4.80;100.00;101187.22;5103602;27;19928;-67
2021/03/04 01:02:29;;;;;;;;;;;;;;;4.77;100.00;101190.06;5091617;28;19967;-66
2021/03/04 01:04:56;;;;;;;;;;;;;;;4.65;100.00;101187.94;5091628;28;19931;-66
2021/03/04 01:07:21;;;;;;;;;;;;;;;4.59;100.00;101183.75;5091353;28;19924;-67
2021/03/04 01:09:47;;;;;;;;;;;;;;;4.52;100.00;101177.81;5106722;28;19935;-66
2021/03/04 01:12:13;;;;;;;;;;;;;;;4.55;100.00;101178.63;5111890;28;20366;-66
2021/03/04 01:14:39;;;;;;;;;;;;;;;4.46;100.00;101178.13;5111689;28;19931;-66
2021/03/04 01:17:06;;;;;;;;;;;;;;;4.42;100.00;101178.31;5111662;28;19923;-66
2021/03/04 01:19:32;;;;;;;;;;;;;;;4.31;100.00;101168.09;5111622;28;20265;-66
2021/03/04 01:21:58;;;;;;;;;;;;;;;4.22;100.00;101160.47;5111769;28;19935;-66
2021/03/04 01:24:24;;;;;;;;;;;;;;;4.24;100.00;101159.47;5111725;28;19923;-66
2021/03/04 01:26:50;;;;;;;;;;;;;;;4.20;100.00;101152.47;5111317;28;19947;-66
2021/03/04 01:29:16;;;;;;;;;;;;;;;4.18;100.00;101149.88;5113084;28;19980;-66
2021/03/04 01:31:41;;;;;;;;;;;;;;;4.16;100.00;101142.84;5115852;28;19924;-66
2021/03/04 01:34:07;;;;;;;;;;;;;;;4.11;100.00;101143.03;5114476;28;20010;-66
2021/03/04 01:36:33;;;;;;;;;;;;;;;4.04;100.00;101155.03;5115509;28;20028;-66
2021/03/04 01:39:00;;;;;;;;;;;;;;;3.99;100.00;101152.53;5115762;28;19924;-66
2021/03/04 01:41:25;;;;;;;;;;;;;;;3.91;100.00;101145.81;5114436;28;20454;-66
2021/03/04 01:43:51;;;;;;;;;;;;;;;3.77;100.00;101141.94;5115640;28;19927;-66
2021/03/04 01:46:17;;;;;;;;;;;;;;;3.67;100.00;101138.81;5115116;28;20297;-67
2021/03/04 01:48:43;;;;;;;;;;;;;;;3.62;100.00;101140.84;5115520;28;20012;-66
2021/03/04 01:51:09;;;;;;;;;;;;;;;3.54;100.00;101134.06;5115513;28;19924;-66
2021/03/04 01:53:35;;;;;;;;;;;;;;;3.53;100.00;101141.25;5115289;28;19923;-66
2021/03/04 01:56:02;;;;;;;;;;;;;;;3.52;100.00;101143.03;5115157;28;19923;-66
2021/03/04 01:58:27;;;;;;;;;;;;;;;3.48;100.00;101137.91;5115266;28;19924;-66
2021/03/04 02:04:16;;;;;;;;;;;;;;;3.55;100.00;101138.50;5094506;28;19970;-66
2021/03/04 02:06:47;;;;;;;;;;;;;;;3.65;100.00;101138.00;5094622;28;19967;-66
2021/03/04 02:09:14;;;;;;;;;;;;;;;3.63;100.00;101141.69;5094667;28;19930;-67
2021/03/04 02:11:45;;;;;;;;;;;;;;;3.56;100.00;101129.50;5094827;28;19928;-67
2021/03/04 02:14:13;;;;;;;;;;;;;;;3.58;100.00;101124.91;5094896;28;20394;-67
2021/03/04 02:16:42;;;;;;;;;;;;;;;3.58;100.00;101125.81;5094395;28;20401;-66
2021/03/04 02:19:09;;;;;;;;;;;;;;;3.57;100.00;101126.75;5094647;28;19924;-66
2021/03/04 02:21:44;;;;;;;;;;;;;;;3.56;100.00;101116.94;5094383;28;20436;-66
2021/03/04 02:24:35;;;;;;;;;;;;;;;3.59;100.00;101114.09;5094477;28;19971;-66
2021/03/04 02:27:03;;;;;;;;;;;;;;;3.64;100.00;101113.91;5094240;28;20441;-66
2021/03/04 02:29:30;;;;;;;;;;;;;;;3.74;100.00;101117.94;5094306;28;19954;-67
2021/03/04 02:31:57;;;;;;;;;;;;;;;3.87;100.00;101107.47;5094369;28;19924;-67
2021/03/04 02:34:24;;;;;;;;;;;;;;;4.04;100.00;101106.66;5093790;28;20041;-66
2021/03/04 02:36:52;;;;;;;;;;;;;;;4.11;100.00;101102.72;5092782;28;20030;-66
2021/03/04 02:39:18;;;;;;;;;;;;;;;4.18;100.00;101104.19;5093688;28;20351;-66
2021/03/04 02:41:45;;;;;;;;;;;;;;;4.23;100.00;101103.09;5093220;28;20388;-67
2021/03/04 02:44:12;;;;;;;;;;;;;;;4.26;100.00;101108.31;5093906;28;19928;-65
2021/03/04 02:46:39;;;;;;;;;;;;;;;4.26;100.00;101113.69;5093830;28;19924;-66
2021/03/04 02:49:05;;;;;;;;;;;;;;;4.29;100.00;101121.59;5096619;28;19932;-67
2021/03/04 02:51:33;;;;;;;;;;;;;;;4.29;100.00;101121.59;5114258;28;20416;-66
2021/03/04 02:53:59;;;;;;;;;;;;;;;4.29;100.00;101119.78;5114149;28;19923;-67
2021/03/04 02:56:25;;;;;;;;;;;;;;;4.29;100.00;101118.91;5113827;28;19924;-66
2021/03/04 02:58:52;;;;;;;;;;;;;;;4.25;100.00;101123.59;5113528;28;19924;-66
2021/03/04 03:01:20;;;;;;;;;;;;;;;4.23;100.00;101113.84;5114141;28;19927;-66
2021/03/04 03:03:47;;;;;;;;;;;;;;;4.24;100.00;101115.59;5114064;28;19962;-66
2021/03/04 03:06:13;;;;;;;;;;;;;;;4.23;100.00;101114.72;5113865;28;19946;-66
2021/03/04 03:08:39;;;;;;;;;;;;;;;4.21;100.00;101113.94;5114004;28;20392;-66
2021/03/04 03:11:05;;;;;;;;;;;;;;;4.20;100.00;101114.88;5113948;28;20014;-67
2021/03/04 03:13:32;;;;;;;;;;;;;;;4.17;100.00;101113.19;5114063;28;20022;-66
2021/03/04 03:15:58;;;;;;;;;;;;;;;4.15;100.00;101115.06;5113403;28;19955;-66
2021/03/04 03:18:25;;;;;;;;;;;;;;;4.16;100.00;101116.81;5113795;28;20303;-68
2021/03/04 03:20:51;;;;;;;;;;;;;;;4.17;100.00;101117.72;5113784;28;19954;-66
2021/03/04 03:23:16;;;;;;;;;;;;;;;4.16;100.00;101116.81;5113160;28;19924;-67
2021/03/04 03:25:42;;;;;;;;;;;;;;;4.19;100.00;101119.34;5092989;28;20393;-67
2021/03/04 03:28:08;;;;;;;;;;;;;;;4.22;100.00;101109.41;5093295;28;19928;-66
2021/03/04 03:30:34;;;;;;;;;;;;;;;4.20;100.00;101109.50;5093186;28;19928;-66
2021/03/04 03:33:02;;;;;;;;;;;;;;;4.17;100.00;101113.19;5093247;28;19935;-66
2021/03/04 03:35:29;;;;;;;;;;;;;;;4.17;100.00;101105.13;5092685;28;20026;-66
2021/03/04 03:37:55;;;;;;;;;;;;;;;4.13;100.00;101113.41;5092884;28;20503;-66
2021/03/04 03:40:22;;;;;;;;;;;;;;;4.12;100.00;101109.00;5093141;28;19960;-67
2021/03/04 03:42:48;;;;;;;;;;;;;;;4.05;100.00;101115.59;5092785;28;20405;-66
2021/03/04 03:45:16;;;;;;;;;;;;;;;4.02;100.00;101106.75;5092736;28;20011;-66
2021/03/04 03:47:42;;;;;;;;;;;;;;;4.01;100.00;101109.50;5092685;28;19971;-67
2021/03/04 03:50:08;;;;;;;;;;;;;;;3.96;100.00;101104.34;5092652;28;20307;-66
2021/03/04 03:52:35;;;;;;;;;;;;;;;3.93;100.00;101101.81;5092463;28;20011;-66
2021/03/04 03:55:03;;;;;;;;;;;;;;;3.90;100.00;101101.97;5105188;28;19970;-66
2021/03/04 03:57:30;;;;;;;;;;;;;;;3.82;100.00;101094.25;5112924;28;20363;-67
2021/03/04 03:59:57;;;;;;;;;;;;;;;3.79;100.00;101088.16;5112943;28;20011;-66
2021/03/04 04:02:23;;;;;;;;;;;;;;;3.76;100.00;101077.56;5112972;28;20010;-66
2021/03/04 04:04:49;;;;;;;;;;;;;;;3.76;100.00;101075.75;5112728;28;19967;-66
2021/03/04 04:07:15;;;;;;;;;;;;;;;3.77;100.00;101076.59;5112712;28;19931;-67
2021/03/04 04:09:42;;;;;;;;;;;;;;;3.76;100.00;101074.88;5112796;28;19939;-66
2021/03/04 04:12:08;;;;;;;;;;;;;;;3.73;100.00;101073.22;5112735;28;20060;-67
2021/03/04 04:14:34;;;;;;;;;;;;;;;3.73;100.00;101081.25;5112175;28;20026;-66
2021/03/04 04:17:00;;;;;;;;;;;;;;;3.71;100.00;101085.81;5112364;28;20022;-66
2021/03/04 04:19:26;;;;;;;;;;;;;;;3.71;100.00;101079.59;5112171;28;19966;-66
2021/03/04 04:21:52;;;;;;;;;;;;;;;3.67;100.00;101097.66;5112620;28;20024;-66
2021/03/04 04:24:18;;;;;;;;;;;;;;;3.62;100.00;101088.94;5112460;28;19923;-66
2021/03/04 04:26:44;;;;;;;;;;;;;;;3.63;100.00;101088.84;5112571;27;19931;-67
2021/03/04 04:29:10;;;;;;;;;;;;;;;3.51;100.00;101093.00;5112399;28;19970;-66
2021/03/04 04:31:36;;;;;;;;;;;;;;;3.46;100.00;101092.34;5112346;28;20365;-66
2021/03/04 04:34:02;;;;;;;;;;;;;;;3.39;100.00;101101.59;5112053;28;19930;-66
2021/03/04 04:36:28;;;;;;;;;;;;;;;3.34;100.00;101098.25;5112294;28;19970;-66
2021/03/04 04:38:56;;;;;;;;;;;;;;;3.31;100.00;101101.06;5112293;28;20003;-68
2021/03/04 04:41:22;;;;;;;;;;;;;;;3.34;100.00;101100.94;5111959;28;19930;-68
2021/03/04 04:43:48;;;;;;;;;;;;;;;3.34;100.00;101092.88;5101130;28;20018;-68
2021/03/04 04:46:14;;;;;;;;;;;;;;;3.34;100.00;101087.50;5091596;28;19958;-68
2021/03/04 04:48:40;;;;;;;;;;;;;;;3.32;100.00;101084.91;5091825;28;19928;-68
2021/03/04 04:51:05;;;;;;;;;;;;;;;3.32;100.00;101089.41;5093339;28;20350;-68
2021/03/04 04:53:31;;;;;;;;;;;;;;;3.30;100.00;101084.13;5112109;28;19924;-68
2021/03/04 04:55:57;;;;;;;;;;;;;;;3.29;100.00;101070.78;5111775;28;19924;-68
2021/03/04 04:58:23;;;;;;;;;;;;;;;3.19;100.00;101067.59;5112014;28;20022;-68
2021/03/04 05:00:49;;;;;;;;;;;;;;;3.12;100.00;101061.66;5111940;28;19998;-68
2021/03/04 05:03:15;;;;;;;;;;;;;;;3.13;100.00;101062.53;5111266;28;19961;-68
2021/03/04 05:05:41;;;;;;;;;;;;;;;3.14;100.00;101058.91;5111896;28;19924;-68
2021/03/04 05:08:07;;;;;;;;;;;;;;;3.15;100.00;101061.53;5110680;28;19924;-67
2021/03/04 05:10:33;;;;;;;;;;;;;;;3.14;100.00;101065.16;5106803;28;20011;-66
2021/03/04 05:12:58;;;;;;;;;;;;;;;3.14;100.00;101058.91;5108845;28;20018;-67
2021/03/04 05:15:24;;;;;;;;;;;;;;;3.14;100.00;101072.31;5111274;28;19923;-66
2021/03/04 05:17:51;;;;;;;;;;;;;;;3.13;100.00;101071.44;5111701;28;19969;-66
2021/03/04 05:20:17;;;;;;;;;;;;;;;3.14;100.00;101073.19;5111688;28;20014;-66
2021/03/04 05:22:42;;;;;;;;;;;;;;;3.13;100.00;101074.13;5110431;28;19930;-67
2021/03/04 05:25:09;;;;;;;;;;;;;;;3.15;100.00;101077.63;5111774;28;20352;-66
2021/03/04 05:27:34;;;;;;;;;;;;;;;3.10;100.00;101076.97;5111614;28;20015;-65
2021/03/04 05:30:00;;;;;;;;;;;;;;;3.10;100.00;101076.06;5108731;28;20669;-66
2021/03/04 05:32:26;;;;;;;;;;;;;;;3.11;100.00;101072.47;5091012;28;20018;-66
2021/03/04 05:34:53;;;;;;;;;;;;;;;3.10;100.00;101071.59;5094994;28;19924;-66
2021/03/04 05:37:18;;;;;;;;;;;;;;;3.09;100.00;101059.13;5105469;28;20381;-66
2021/03/04 05:39:44;;;;;;;;;;;;;;;3.07;100.00;101046.72;5111617;28;19924;-68
2021/03/04 05:42:10;;;;;;;;;;;;;;;3.08;100.00;101057.38;5110584;28;20412;-68
2021/03/04 05:44:36;;;;;;;;;;;;;;;3.07;100.00;101054.75;5111375;28;19936;-68
2021/03/04 05:47:03;;;;;;;;;;;;;;;3.06;100.00;101061.06;5101717;28;19931;-67
2021/03/04 05:49:29;;;;;;;;;;;;;;;3.12;100.00;101066.16;5091035;28;20026;-67
2021/03/04 05:51:56;;;;;;;;;;;;;;;3.09;100.00;101048.38;5103018;28;19930;-67
2021/03/04 05:54:22;;;;;;;;;;;;;;;3.13;100.00;101052.66;5111201;28;20476;-67
2021/03/04 05:56:48;;;;;;;;;;;;;;;3.11;100.00;101054.53;5098788;28;19926;-67
2021/03/04 05:59:14;;;;;;;;;;;;;;;3.14;100.00;101051.75;5091082;28;20040;-67
2021/03/04 06:01:42;;;;;;;;;;;;;;;3.11;100.00;101051.84;5091363;28;19924;-67
2021/03/04 06:04:07;;;;;;;;;;;;;;;3.12;100.00;101042.00;5090715;28;19956;-67
2021/03/04 06:06:33;;;;;;;;;;;;;;;3.10;100.00;101055.50;5094143;28;19924;-67
2021/03/04 06:09:01;;;;;;;;;;;;;;;3.11;100.00;101059.91;5090743;28;20377;-67
2021/03/04 06:11:26;;;;;;;;;;;;;;;3.08;100.00;101060.03;5106324;28;19923;-67
2021/03/04 06:13:53;;;;;;;;;;;;;;;3.03;100.00;101061.19;5097441;28;20420;-67
2021/03/04 06:16:18;;;;;;;;;;;;;;;3.05;100.00;101052.16;5094088;28;20414;-67
2021/03/04 06:18:44;;;;;;;;;;;;;;;3.03;100.00;101061.19;5105818;28;19924;-67
2021/03/04 06:21:17;;;;;;;;;;;;;;;3.04;100.00;101063.81;5111126;28;20046;-67
2021/03/04 06:23:43;;;;;;;;;;;;;;;3.00;100.00;101063.06;5104923;28;19946;-67
2021/03/04 06:26:10;;;;;;;;;;;;;;;2.96;100.00;101063.28;5094832;28;19928;-67
2021/03/04 06:28:36;;;;;;;;;;;;;;;2.93;100.00;101066.09;5094252;28;20457;-67
2021/03/04 06:31:01;;;;;;;;;;;;;;;2.97;100.00;101067.72;5094109;28;19995;-67
2021/03/04 06:33:34;;;;;;;;;;;;;;;2.97;100.00;101067.72;5100102;28;20023;-67
2021/03/04 06:36:10;;;;;;;;;;;;;;;2.99;100.00;101065.81;5114123;28;19963;-67
2021/03/04 06:38:36;;;;;;;;;;;;;;;3.00;100.00;101059.53;5105273;28;20445;-67
2021/03/04 06:41:02;;;;;;;;;;;;;;;3.02;100.00;101068.38;5099091;28;19934;-66
2021/03/04 06:43:29;;;;;;;;;;;;;;;3.05;100.00;101062.88;5094094;28;20060;-65
2021/03/04 06:46:01;;;;;;;;;;;;;;;3.00;100.00;101062.19;5097261;28;19923;-65
2021/03/04 06:48:27;;;;;;;;;;;;;;;3.02;100.00;101065.72;5105380;28;19924;-65
2021/03/04 06:50:58;;;;;;;;;;;;;;;3.01;100.00;101070.19;5103301;28;19924;-65
2021/03/04 06:53:24;;;;;;;;;;;;;;;3.01;100.00;101072.00;5098293;28;19935;-65
2021/03/04 06:55:50;;;;;;;;;;;;;;;3.05;100.00;101065.56;5111384;28;19963;-65
2021/03/04 06:58:23;;;;;;;;;;;;;;;2.99;100.00;101066.72;5110266;28;19936;-65
2021/03/04 07:01:00;;;;;;;;;;;;;;;2.97;100.00;101068.56;5095816;28;19932;-65
2021/03/04 07:03:33;;;;;;;;;;;;;;;3.03;100.00;101063.88;5103335;28;19982;-65
2021/03/04 07:06:01;;;;;;;;;;;;;;;3.01;100.00;101069.31;5098201;28;20413;-65
2021/03/04 07:08:27;;;;;;;;;;;;;;;3.04;100.00;101071.84;5097614;28;20057;-65
2021/03/04 07:10:53;;;;;;;;;;;;;;;3.09;100.00;101072.53;5112282;28;20022;-65
2021/03/04 07:13:19;;;;;;;;;;;;;;;3.05;100.00;101064.66;5108210;28;19928;-65
2021/03/04 07:15:45;;;;;;;;;;;;;;;3.04;100.00;101061.13;5113421;28;20356;-65
2021/03/04 07:18:12;;;;;;;;;;;;;;;3.01;100.00;101059.44;5106456;28;20354;-65
2021/03/04 07:20:37;;;;;;;;;;;;;;;3.03;100.00;101058.53;5106655;28;20046;-65
2021/03/04 07:23:03;;;;;;;;;;;;;;;2.97;100.00;101063.22;5113388;28;19924;-65
2021/03/04 07:25:29;;;;;;;;;;;;;;;3.03;100.00;101061.19;5110474;28;19932;-65
2021/03/04 07:27:55;;;;;;;;;;;;;;;3.10;100.00;101052.81;5096028;28;19924;-65
2021/03/04 07:30:21;;;;;;;;;;;;;;;3.14;100.00;101051.75;5085860;28;20597;-65
2021/03/04 07:32:47;;;;;;;;;;;;;;;3.13;100.00;101055.34;5112419;28;20341;-65
2021/03/04 07:35:14;;;;;;;;;;;;;;;3.17;100.00;101058.78;5112651;28;19924;-64
2021/03/04 07:37:41;;;;;;;;;;;;;;;3.14;100.00;101065.16;5111964;28;19951;-65
2021/03/04 07:40:09;;;;;;;;;;;;;;;2.99;100.00;101055.97;5111304;28;19963;-65
2021/03/04 07:42:35;;;;;;;;;;;;;;;3.03;100.00;101056.69;5111127;28;19969;-65
2021/03/04 07:45:10;;;;;;;;;;;;;;;3.06;100.00;101063.75;5101452;28;19964;-65
2021/03/04 07:47:36;;;;;;;;;;;;;;;3.09;100.00;101068.97;5093748;28;19963;-65
2021/03/04 07:50:14;;;;;;;;;;;;;;;3.11;100.00;101067.94;5108713;28;20393;-65
2021/03/04 07:52:41;;;;;;;;;;;;;;;3.08;100.00;101064.56;5092506;28;19930;-66
2021/03/04 07:55:08;;;;;;;;;;;;;;;3.07;100.00;101066.34;5104088;28;20420;-65
2021/03/04 07:57:41;;;;;;;;;;;;;;;3.01;100.00;101066.63;5100427;28;20007;-65
2021/03/04 08:00:08;;;;;;;;;;;;;;;2.99;100.00;101060.44;5095076;28;20400;-65
2021/03/04 08:02:42;;;;;;;;;;;;;;;2.91;100.00;101062.59;5095249;28;19931;-65
2021/03/04 08:05:08;;;;;;;;;;;;;;;2.91;100.00;101067.97;5106734;28;20592;-66
2021/03/04 08:07:35;;;;;;;;;;;;;;;2.99;100.00;101060.44;5111595;28;20390;-65
2021/03/04 08:10:05;;;;;;;;;;;;;;;2.98;100.00;101056.03;5112253;28;20409;-65
2021/03/04 08:12:31;;;;;;;;;;;;;;;3.04;100.00;101050.41;5109739;28;20026;-65
2021/03/04 08:14:58;;;;;;;;;;;;;;;3.07;100.00;101052.06;5098049;28;20393;-65
2021/03/04 08:17:34;;;;;;;;;;;;;;;3.00;100.00;101060.38;5107444;28;19924;-65
2021/03/04 08:20:05;;;;;;;;;;;;;;;2.98;100.00;101058.69;5112459;28;19966;-66
2021/03/04 08:22:31;;;;;;;;;;;;;;;2.91;100.00;101051.88;5099951;28;20782;-64
2021/03/04 08:25:01;;;;;;;;;;;;;;;2.95;100.00;101054.38;5100529;28;20506;-66
2021/03/04 08:27:28;;;;;;;;;;;;;;;3.07;100.00;101047.56;5107026;28;20011;-66
2021/03/04 08:29:54;;;;;;;;;;;;;;;3.05;100.00;101045.91;5109844;28;19938;-67
2021/03/04 08:32:20;;;;;;;;;;;;;;;3.11;100.00;101043.81;5111474;28;19923;-67
2021/03/04 08:34:46;;;;;;;;;;;;;;;3.10;100.00;101039.41;5104200;28;19958;-65
2021/03/04 08:37:21;;;;;;;;;;;;;;;3.15;100.00;101044.53;5104494;28;20615;-66
2021/03/04 08:39:46;;;;;;;;;;;;;;;3.13;100.00;101036.56;5099934;28;19931;-66
2021/03/04 08:42:12;;;;;;;;;;;;;;;3.11;100.00;101049.16;5094299;28;19924;-66
2021/03/04 08:44:47;;;;;;;;;;;;;;;3.05;100.00;101032.47;5101232;28;20120;-66
2021/03/04 08:47:13;;;;;;;;;;;;;;;3.06;100.00;101042.28;5100719;28;19923;-66
2021/03/04 08:49:39;;;;;;;;;;;;;;;3.13;100.00;101044.63;5101019;28;19977;-66
2021/03/04 08:52:06;;;;;;;;;;;;;;;3.20;100.00;101039.84;5102426;28;20022;-66
2021/03/04 08:54:32;;;;;;;;;;;;;;;3.24;100.00;101040.59;5101053;28;20458;-66
2021/03/04 08:57:01;;;;;;;;;;;;;;;3.23;100.00;101030.78;5100448;28;19927;-66
2021/03/04 08:59:27;;;;;;;;;;;;;;;3.15;100.00;101031.13;5101579;28;19955;-66
2021/03/04 09:01:54;;;;;;;;;;;;;;;3.19;100.00;101040.78;5100474;28;19924;-66
2021/03/04 09:04:20;;;;;;;;;;;;;;;3.25;100.00;101036.97;5098304;28;20358;-66
2021/03/04 09:06:46;;;;;;;;;;;;;;;3.26;100.00;101038.69;5103012;28;19955;-66
2021/03/04 09:09:19;;;;;;;;;;;;;;;3.29;100.00;101039.44;5097212;28;19931;-66
2021/03/04 09:11:46;;;;;;;;;;;;;;;3.37;100.00;101025.66;5103520;28;20349;-67
2021/03/04 09:14:11;;;;;;;;;;;;;;;3.41;100.00;101019.22;5099994;28;19978;-66
2021/03/04 09:16:37;;;;;;;;;;;;;;;3.44;100.00;101027.09;5100963;28;19928;-66
2021/03/04 09:19:04;;;;;;;;;;;;;;;3.50;100.00;101025.94;5101062;28;19988;-66
2021/03/04 09:21:30;;;;;;;;;;;;;;;3.51;100.00;101036.63;5099756;28;20400;-66
2021/03/04 09:23:56;;;;;;;;;;;;;;;3.51;100.00;101028.59;5100510;28;20308;-66
2021/03/04 09:26:22;;;;;;;;;;;;;;;3.55;100.00;101028.44;5098810;28;19924;-66
2021/03/04 09:28:48;;;;;;;;;;;;;;;3.52;100.00;101024.94;5101157;28;20400;-66
2021/03/04 09:31:14;;;;;;;;;;;;;;;3.51;100.00;101033.97;5099790;28;19924;-66
2021/03/04 09:33:40;;;;;;;;;;;;;;;3.48;100.00;101026.03;5100278;28;20023;-66
2021/03/04 09:36:07;;;;;;;;;;;;;;;3.47;100.00;101032.31;5099074;28;20432;-65
2021/03/04 09:38:34;;;;;;;;;;;;;;;3.40;100.00;101033.56;5100385;28;19924;-66
2021/03/04 09:41:10;;;;;;;;;;;;;;;3.40;100.00;101028.19;5099582;28;19924;-66
2021/03/04 09:43:40;;;;;;;;;;;;;;;3.32;100.00;101035.75;5099349;28;20023;-66
2021/03/04 09:46:06;;;;;;;;;;;;;;;3.30;100.00;101038.50;5098753;28;20015;-65
2021/03/04 09:48:37;;;;;;;;;;;;;;;3.25;100.00;101039.66;5097822;28;20443;-65
2021/03/04 09:51:03;;;;;;;;;;;;;;;3.26;100.00;101044.06;5103860;28;19928;-65
2021/03/04 09:53:30;;;;;;;;;;;;;;;3.26;100.00;101033.31;5104286;28;20358;-65
2021/03/04 09:55:56;;;;;;;;;;;;;;;3.29;100.00;101026.00;5101593;28;19924;-65
2021/03/04 09:58:23;;;;;;;;;;;;;;;3.40;100.00;101022.84;5104035;28;20346;-65
2021/03/04 10:00:55;;;;;;;;;;;;;;;3.49;100.00;101027.78;5102617;28;19931;-65
2021/03/04 10:03:21;;;;;;;;;;;;;;;3.48;100.00;101026.03;5093486;28;19984;-65
2021/03/04 10:05:47;;;;;;;;;;;;;;;3.49;100.00;101025.09;5093475;28;19924;-65
2021/03/04 10:08:13;;;;;;;;;;;;;;;3.54;100.00;101029.38;5100177;28;20022;-65
2021/03/04 10:10:41;;;;;;;;;;;;;;;3.59;100.00;101030.88;5096438;28;20010;-65
2021/03/04 10:13:06;;;;;;;;;;;;;;;3.41;100.00;101027.25;5094689;28;20146;-65
2021/03/04 10:15:33;;;;;;;;;;;;;;;3.34;100.00;101042.78;5110194;28;20282;-65
2021/03/04 10:18:00;;;;;;;;;;;;;;;3.31;100.00;101045.63;5104564;28;19924;-65
2021/03/04 10:20:26;;;;;;;;;;;;;;;3.38;100.00;101048.00;5094359;28;19986;-65
2021/03/04 10:22:52;;;;;;;;;;;;;;;3.15;100.00;101047.22;5095410;28;19924;-65
2021/03/04 10:25:18;;;;;;;;;;;;;;;3.06;100.00;101055.69;5110467;28;20015;-64
2021/03/04 10:27:45;;;;;;;;;;;;;;;2.84;100.00;101056.63;5096730;28;19924;-65
2021/03/04 10:30:12;;;;;;;;;;;;;;;2.70;100.00;101053.69;5104500;28;20065;-65
2021/03/04 10:32:38;;;;;;;;;;;;;;;2.58;100.00;101055.97;5094996;28;19924;-65
2021/03/04 10:35:05;;;;;;;;;;;;;;;2.38;100.00;101054.13;5114000;28;19938;-65
2021/03/04 10:37:31;;;;;;;;;;;;;;;2.54;100.00;101061.50;5114150;28;20018;-65
2021/03/04 10:39:57;;;;;;;;;;;;;;;2.51;100.00;101058.03;5113926;28;19923;-65
2021/03/04 10:42:22;;;;;;;;;;;;;;;2.55;100.00;101058.75;5112640;28;19931;-65
2021/03/04 10:44:49;;;;;;;;;;;;;;;2.63;100.00;101062.00;5105805;28;19930;-65
2021/03/04 10:47:15;;;;;;;;;;;;;;;2.48;100.00;101066.19;5110971;28;20007;-65
2021/03/04 10:49:41;;;;;;;;;;;;;;;2.26;100.00;101066.22;5113840;28;19924;-65
2021/03/04 10:52:06;;;;;;;;;;;;;;;2.26;100.00;101059.97;5110202;28;19985;-64
2021/03/04 10:54:32;;;;;;;;;;;;;;;2.32;100.00;101057.91;5107161;28;19928;-64
2021/03/04 10:56:58;;;;;;;;;;;;;;;2.33;100.00;101062.34;5112245;28;19924;-64
2021/03/04 10:59:24;;;;;;;;;;;;;;;2.44;100.00;101064.56;5112449;28;19924;-65
2021/03/04 11:01:51;;;;;;;;;;;;;;;2.60;100.00;101059.44;5111915;28;19977;-64
2021/03/04 11:04:16;;;;;;;;;;;;;;;2.68;100.00;101057.28;5099931;28;20012;-64
2021/03/04 11:06:42;;;;;;;;;;;;;;;2.75;100.00;101067.75;5104593;28;19923;-64
2021/03/04 11:09:08;;;;;;;;;;;;;;;2.76;100.00;101054.28;5112619;28;19928;-65
2021/03/04 11:11:34;;;;;;;;;;;;;;;2.72;100.00;101058.03;5099496;28;19954;-65
2021/03/04 11:14:00;;;;;;;;;;;;;;;2.66;100.00;101052.97;5109592;28;19959;-65
2021/03/04 11:16:25;;;;;;;;;;;;;;;2.62;100.00;101054.00;5111386;28;19973;-65
2021/03/04 11:18:52;;;;;;;;;;;;;;;2.69;100.00;101063.53;5105835;28;19968;-65
2021/03/04 11:21:18;;;;;;;;;;;;;;;2.77;100.00;101060.53;5113334;28;19924;-65
2021/03/04 11:23:44;;;;;;;;;;;;;;;2.81;100.00;101065.69;5100053;28;19924;-66
2021/03/04 11:26:09;;;;;;;;;;;;;;;2.80;100.00;101063.06;5108469;28;20008;-65
2021/03/04 11:28:35;;;;;;;;;;;;;;;2.81;100.00;101054.09;5107972;28;19932;-65
2021/03/04 11:31:01;;;;;;;;;;;;;;;2.79;100.00;101066.69;5111727;28;19924;-65
2021/03/04 11:33:27;;;;;;;;;;;;;;;2.65;100.00;101056.56;5111775;28;19953;-65
2021/03/04 11:35:53;;;;;;;;;;;;;;;2.48;100.00;101060.81;5099386;28;19950;-65
2021/03/04 11:38:19;;;;;;;;;;;;;;;2.42;100.00;101055.75;5090530;28;20032;-65
2021/03/04 11:40:45;;;;;;;;;;;;;;;2.40;100.00;101052.25;5091644;28;19966;-65
2021/03/04 11:43:11;;;;;;;;;;;;;;;2.45;100.00;101052.06;5089930;28;19931;-65
2021/03/04 11:45:37;;;;;;;;;;;;;;;2.56;100.00;101056.97;5090708;28;19996;-65
2021/03/04 11:48:03;;;;;;;;;;;;;;;2.62;100.00;101045.97;5090809;28;20860;-65
2021/03/04 11:50:29;;;;;;;;;;;;;;;2.60;100.00;101043.34;5089043;28;20030;-65
2021/03/04 11:52:56;;;;;;;;;;;;;;;2.66;100.00;101039.56;5108174;28;19924;-64
2021/03/04 11:55:22;;;;;;;;;;;;;;;2.63;100.00;101037.88;5102875;28;20038;-66
2021/03/04 11:57:47;;;;;;;;;;;;;;;2.62;100.00;101040.59;5109558;28;20007;-65
2021/03/04 12:00:14;;;;;;;;;;;;;;;2.65;100.00;101035.13;5098176;28;19938;-65
2021/03/04 12:02:40;;;;;;;;;;;;;;;2.66;100.00;101035.06;5102554;28;20337;-65
2021/03/04 12:05:06;;;;;;;;;;;;;;;2.61;100.00;101036.22;5109935;28;19928;-66
2021/03/04 12:07:32;;;;;;;;;;;;;;;2.62;100.00;101035.25;5105719;28;20676;-65
2021/03/04 12:09:59;;;;;;;;;;;;;;;2.53;100.00;101030.31;5111395;28;19933;-65
2021/03/04 12:12:25;;;;;;;;;;;;;;;2.36;100.00;101023.84;5092120;28;20367;-65
2021/03/04 12:14:51;;;;;;;;;;;;;;;2.40;100.00;101024.59;5092357;28;19931;-65
2021/03/04 12:17:17;;;;;;;;;;;;;;;2.18;100.00;101020.13;5112566;28;20018;-65
2021/03/04 12:19:42;;;;;;;;;;;;;;;2.24;100.00;101027.03;5112518;28;19924;-65
2021/03/04 12:22:08;;;;;;;;;;;;;;;2.31;100.00;101020.47;5093523;28;19924;-65
2021/03/04 12:24:35;;;;;;;;;;;;;;;2.44;100.00;101012.78;5092085;28;19928;-64
2021/03/04 12:27:02;;;;;;;;;;;;;;;2.54;100.00;101010.59;5108291;28;19952;-65
2021/03/04 12:29:28;;;;;;;;;;;;;;;2.57;100.00;101007.78;5111720;28;19963;-65
2021/03/04 12:31:53;;;;;;;;;;;;;;;2.59;100.00;101021.97;5112680;28;19974;-65
2021/03/04 12:34:19;;;;;;;;;;;;;;;2.54;100.00;101010.59;5096424;28;19928;-66
2021/03/04 12:36:45;;;;;;;;;;;;;;;2.47;100.00;101004.63;5090706;28;19924;-65